Time;durP1;ratioP1;P1;durP2;ratioP2;P2;SDS_P1;SDS_P2;PMS_P1;PMS_P2;Temp;Humidity;BMP_temperature;BMP_pressure;BME280_temperature;BME280_humidity;BME280_pressure;Samples;Min_cycle;Max_cycle;Signal;HPM_P1;HPM_P2
2022/03/15 00:02:28;;;;;;;16.50;6.90;;;6.50;1.30;;;;;;7370618;19;20067;-62
2022/03/15 00:04:58;;;;;;;10.70;7.18;;;6.60;1.10;;;;;;7366008;19;20003;-62
2022/03/15 00:07:28;;;;;;;9.88;6.85;;;6.60;1.00;;;;;;7366699;19;20086;-63
2022/03/15 00:09:58;;;;;;;9.48;6.68;;;6.60;1.10;;;;;;7366516;19;20023;-62
2022/03/15 00:12:31;;;;;;;17.48;6.78;;;6.60;1.10;;;;;;7391709;19;20003;-62
2022/03/15 00:15:01;;;;;;;11.13;6.82;;;6.60;1.40;;;;;;7362611;19;20041;-62
2022/03/15 00:17:32;;;;;;;10.13;7.25;;;6.50;1.60;;;;;;7365970;19;20119;-62
2022/03/15 00:20:02;;;;;;;12.18;6.50;;;6.50;1.70;;;;;;7366103;19;20010;-61
2022/03/15 00:22:35;;;;;;;10.80;6.43;;;6.50;1.80;;;;;;7369061;19;20081;-61
2022/03/15 00:25:13;;;;;;;10.27;5.55;;;6.50;1.80;;;;;;7364490;19;20014;-61
2022/03/15 00:27:46;;;;;;;10.75;6.22;;;6.60;1.60;;;;;;7387649;19;20073;-62
2022/03/15 00:30:17;;;;;;;13.80;6.22;;;6.60;1.80;;;;;;7365502;19;20010;-62
2022/03/15 00:32:47;;;;;;;10.60;6.65;;;6.50;2.00;;;;;;7368268;19;20082;-62
2022/03/15 00:35:19;;;;;;;10.93;5.97;;;6.60;1.50;;;;;;7365662;19;20026;-62
2022/03/15 00:37:51;;;;;;;7.68;5.70;;;6.50;1.90;;;;;;7367088;19;20014;-62
2022/03/15 00:40:23;;;;;;;9.85;5.60;;;6.50;2.00;;;;;;7366917;19;20010;-62
2022/03/15 00:42:55;;;;;;;7.45;4.35;;;6.50;1.70;;;;;;7389264;19;20026;-61
2022/03/15 00:45:28;;;;;;;7.38;4.47;;;6.70;1.00;;;;;;7361491;19;20074;-61
2022/03/15 00:47:59;;;;;;;8.25;4.60;;;6.70;1.00;;;;;;7368083;19;20084;-62
2022/03/15 00:50:30;;;;;;;7.13;4.80;;;6.70;1.00;;;;;;7364781;19;20007;-61
2022/03/15 00:53:03;;;;;;;7.78;4.72;;;6.70;1.00;;;;;;7367785;19;20074;-63
2022/03/15 00:55:33;;;;;;;10.80;5.20;;;6.60;1.00;;;;;;7360744;19;20485;-61
2022/03/15 00:58:05;;;;;;;6.90;4.72;;;6.50;1.00;;;;;;7369041;19;20160;-62
2022/03/15 01:00:36;;;;;;;7.88;4.35;;;6.50;1.00;;;;;;7386916;19;20035;-63
2022/03/15 01:03:06;;;;;;;7.65;4.93;;;6.50;1.00;;;;;;7366348;19;20105;-62
2022/03/15 01:05:36;;;;;;;8.70;4.85;;;6.50;1.00;;;;;;7360250;19;20015;-61
2022/03/15 01:08:06;;;;;;;9.88;4.80;;;6.50;1.00;;;;;;7365537;19;20021;-62
2022/03/15 01:10:36;;;;;;;9.05;4.53;;;6.50;1.00;;;;;;7365924;19;20066;-62
2022/03/15 01:13:09;;;;;;;11.13;5.45;;;6.40;1.10;;;;;;7367346;19;20073;-61
2022/03/15 01:15:41;;;;;;;9.85;6.10;;;6.30;1.30;;;;;;7380610;19;20014;-61
2022/03/15 01:18:11;;;;;;;9.10;5.88;;;6.20;1.70;;;;;;7366188;19;20118;-62
2022/03/15 01:20:43;;;;;;;8.75;6.07;;;6.20;2.30;;;;;;7364345;19;20017;-61
2022/03/15 01:23:13;;;;;;;10.23;6.00;;;6.20;2.30;;;;;;7367096;19;20021;-62
2022/03/15 01:25:43;;;;;;;7.47;5.43;;;6.20;2.30;;;;;;7359355;19;21431;-62
2022/03/15 01:28:16;;;;;;;12.55;5.63;;;6.20;2.30;;;;;;7367328;19;20010;-62
2022/03/15 01:30:45;;;;;;;12.15;6.20;;;6.30;2.50;;;;;;7385939;19;20015;-62
2022/03/15 01:33:15;;;;;;;9.35;5.75;;;6.30;2.40;;;;;;7366279;19;20029;-62
2022/03/15 01:35:46;;;;;;;12.18;5.93;;;6.30;2.40;;;;;;7359185;19;20441;-61
2022/03/15 01:38:16;;;;;;;9.32;6.00;;;6.30;2.40;;;;;;7366639;19;20082;-62
2022/03/15 01:40:47;;;;;;;8.60;5.80;;;6.30;2.50;;;;;;7364600;19;20007;-61
2022/03/15 01:43:19;;;;;;;11.48;6.30;;;6.30;2.50;;;;;;7365772;19;20078;-62
2022/03/15 01:45:50;;;;;;;11.27;5.70;;;6.30;2.50;;;;;;7380936;19;20018;-61
2022/03/15 01:48:20;;;;;;;9.60;5.45;;;6.30;2.70;;;;;;7366730;19;20349;-62
2022/03/15 01:50:50;;;;;;;14.32;5.85;;;6.30;2.50;;;;;;7363727;19;20024;-62
2022/03/15 01:53:20;;;;;;;9.43;6.60;;;6.20;3.10;;;;;;7362759;19;20082;-61
2022/03/15 01:55:51;;;;;;;13.18;7.05;;;6.00;4.00;;;;;;7360287;19;20015;-62
2022/03/15 01:58:24;;;;;;;10.32;7.28;;;6.00;4.50;;;;;;7365987;19;20056;-61
2022/03/15 02:00:54;;;;;;;12.88;7.00;;;6.00;4.40;;;;;;7385365;19;20350;-61
2022/03/15 02:03:24;;;;;;;13.35;6.55;;;5.90;4.50;;;;;;7363269;19;20737;-62
2022/03/15 02:05:54;;;;;;;9.40;6.63;;;5.90;4.70;;;;;;7357863;19;20010;-62
2022/03/15 02:08:24;;;;;;;10.90;6.57;;;5.80;5.20;;;;;;7364316;19;20014;-62
2022/03/15 02:10:54;;;;;;;7.82;6.32;;;5.80;5.80;;;;;;7363487;19;20625;-62
2022/03/15 02:13:26;;;;;;;10.23;6.28;;;5.70;5.70;;;;;;7363559;19;20023;-62
2022/03/15 02:15:56;;;;;;;9.60;6.78;;;5.70;6.20;;;;;;7382168;19;20010;-63
2022/03/15 02:18:27;;;;;;;9.40;6.53;;;5.70;6.40;;;;;;7365917;19;20024;-62
2022/03/15 02:20:59;;;;;;;11.43;6.50;;;5.70;6.50;;;;;;7360981;19;20018;-62
2022/03/15 02:23:29;;;;;;;8.70;6.10;;;5.70;6.40;;;;;;7365450;19;20010;-62
2022/03/15 02:25:59;;;;;;;11.65;6.00;;;5.80;6.20;;;;;;7359856;19;20101;-62
2022/03/15 02:28:29;;;;;;;11.65;6.50;;;5.80;6.00;;;;;;7364936;19;20015;-62
2022/03/15 02:30:59;;;;;;;11.10;6.47;;;5.80;6.30;;;;;;7385143;19;20023;-62
2022/03/15 02:33:29;;;;;;;10.23;6.47;;;5.80;6.40;;;;;;7363990;19;20035;-62
2022/03/15 02:36:01;;;;;;;7.78;5.80;;;5.80;6.40;;;;;;7358088;19;20359;-62
2022/03/15 02:38:31;;;;;;;7.82;5.68;;;5.80;6.40;;;;;;7365231;19;20011;-62
2022/03/15 02:41:01;;;;;;;11.38;5.93;;;5.80;6.00;;;;;;7361910;19;20084;-62
2022/03/15 02:43:31;;;;;;;7.82;5.80;;;5.90;6.00;;;;;;7363791;19;20018;-62
2022/03/15 02:46:01;;;;;;;9.60;6.45;;;5.90;5.90;;;;;;7370187;19;20018;-63
2022/03/15 02:48:31;;;;;;;8.55;6.25;;;5.80;6.10;;;;;;7387378;19;20082;-62
2022/03/15 02:51:08;;;;;;;12.32;5.75;;;5.90;6.30;;;;;;7360467;19;20013;-62
2022/03/15 02:53:38;;;;;;;10.38;6.25;;;5.90;5.90;;;;;;7363715;19;20028;-62
2022/03/15 02:56:11;;;;;;;10.40;5.70;;;5.90;5.70;;;;;;7358823;19;20029;-62
2022/03/15 02:58:41;;;;;;;12.00;6.10;;;5.90;5.90;;;;;;7364122;19;20014;-62
2022/03/15 03:01:12;;;;;;;11.27;5.72;;;5.90;5.90;;;;;;7360501;19;20491;-62
2022/03/15 03:03:42;;;;;;;8.10;5.78;;;5.90;5.90;;;;;;7386016;19;20027;-62
2022/03/15 03:06:14;;;;;;;9.13;5.43;;;5.90;5.90;;;;;;7356875;19;20093;-62
2022/03/15 03:08:44;;;;;;;14.25;5.75;;;5.90;6.30;;;;;;7361712;19;20504;-62
2022/03/15 03:11:17;;;;;;;10.02;5.82;;;5.90;5.90;;;;;;7361741;19;20471;-62
2022/03/15 03:13:50;;;;;;;10.30;6.35;;;5.90;5.90;;;;;;7362262;19;20010;-62
2022/03/15 03:16:20;;;;;;;9.60;6.13;;;6.00;6.00;;;;;;7358028;19;23095;-62
2022/03/15 03:18:53;;;;;;;10.52;5.95;;;6.00;5.60;;;;;;7385803;19;20015;-62
2022/03/15 03:21:25;;;;;;;8.73;6.20;;;5.90;5.90;;;;;;7359901;19;20014;-62
2022/03/15 03:23:56;;;;;;;10.20;6.03;;;5.90;6.40;;;;;;7362735;19;20018;-62
2022/03/15 03:26:27;;;;;;;14.25;6.50;;;5.90;6.40;;;;;;7357698;19;20024;-62
2022/03/15 03:29:00;;;;;;;10.90;5.85;;;5.90;6.40;;;;;;7362713;19;20022;-62
2022/03/15 03:31:30;;;;;;;11.32;6.18;;;6.00;6.40;;;;;;7360460;19;20055;-62
2022/03/15 03:34:00;;;;;;;9.07;5.38;;;5.90;6.50;;;;;;7384130;19;20019;-62
2022/03/15 03:36:34;;;;;;;11.32;5.55;;;5.90;6.80;;;;;;7357469;19;20085;-62
2022/03/15 03:39:24;;;;;;;10.45;6.00;;;5.90;6.90;;;;;;7363300;19;20455;-62
2022/03/15 03:41:55;;;;;;;12.13;6.57;;;6.00;6.90;;;;;;7360287;19;20021;-62
2022/03/15 03:44:25;;;;;;;10.98;6.47;;;5.90;6.70;;;;;;7361135;19;20006;-62
2022/03/15 03:46:55;;;;;;;11.10;6.05;;;6.00;6.60;;;;;;7356302;19;20013;-62
2022/03/15 03:49:25;;;;;;;9.00;6.53;;;5.90;6.70;;;;;;7363352;19;20035;-62
2022/03/15 03:51:58;;;;;;;11.98;5.97;;;6.00;6.80;;;;;;7382866;19;20077;-63
2022/03/15 03:54:29;;;;;;;10.63;5.75;;;6.00;6.80;;;;;;7361580;19;20530;-62
2022/03/15 03:56:58;;;;;;;10.75;5.60;;;6.00;6.80;;;;;;7355918;19;20014;-62
2022/03/15 03:59:28;;;;;;;12.85;5.43;;;6.10;6.60;;;;;;7362416;19;20081;-62
2022/03/15 04:01:59;;;;;;;8.88;5.68;;;6.10;6.00;;;;;;7360249;19;20082;-62
2022/03/15 04:04:29;;;;;;;10.48;5.70;;;6.20;5.10;;;;;;7361057;19;20082;-62
2022/03/15 04:07:02;;;;;;;13.43;5.43;;;6.20;4.50;;;;;;7378513;19;20337;-62
2022/03/15 04:09:32;;;;;;;6.78;4.88;;;6.30;3.30;;;;;;7362701;19;20015;-62
2022/03/15 04:12:02;;;;;;;11.32;5.40;;;6.40;2.50;;;;;;7359262;19;20036;-62
2022/03/15 04:14:33;;;;;;;7.47;4.30;;;6.40;2.70;;;;;;7360700;19;20031;-62
2022/03/15 04:17:03;;;;;;;7.30;4.45;;;6.40;2.50;;;;;;7360632;19;20011;-62
2022/03/15 04:19:33;;;;;;;6.68;4.85;;;6.40;2.50;;;;;;7369835;19;20497;-62
2022/03/15 04:22:06;;;;;;;9.55;4.55;;;6.40;2.50;;;;;;7367777;19;20078;-62
2022/03/15 04:24:36;;;;;;;8.05;4.72;;;6.40;2.10;;;;;;7389622;19;20463;-62
2022/03/15 04:27:06;;;;;;;7.78;4.22;;;6.40;1.30;;;;;;7363822;19;20502;-62
2022/03/15 04:29:36;;;;;;;6.85;4.13;;;6.40;1.00;;;;;;7370046;19;20017;-61
2022/03/15 04:32:07;;;;;;;9.60;4.97;;;6.50;1.00;;;;;;7366681;19;20017;-62
2022/03/15 04:34:37;;;;;;;7.28;3.75;;;6.50;1.00;;;;;;7366563;19;20030;-62
2022/03/15 04:37:10;;;;;;;7.47;4.03;;;6.50;1.00;;;;;;7366112;19;20007;-61
2022/03/15 04:39:40;;;;;;;7.95;4.70;;;6.50;1.00;;;;;;7391190;19;20010;-61
2022/03/15 04:42:10;;;;;;;10.18;5.13;;;6.40;1.30;;;;;;7366986;19;20018;-62
2022/03/15 04:44:40;;;;;;;8.50;4.85;;;6.40;1.30;;;;;;7366134;19;20597;-61
2022/03/15 04:47:10;;;;;;;9.85;5.25;;;6.40;1.70;;;;;;7364326;19;20719;-61
2022/03/15 04:49:40;;;;;;;11.50;5.53;;;6.40;2.00;;;;;;7367675;19;20077;-61
2022/03/15 04:52:13;;;;;;;9.00;5.75;;;6.40;2.50;;;;;;7367346;19;20013;-62
2022/03/15 04:54:43;;;;;;;10.60;5.70;;;6.40;2.50;;;;;;7387097;19;20022;-62
2022/03/15 04:57:12;;;;;;;9.88;5.47;;;6.40;2.50;;;;;;7364493;19;20007;-61
2022/03/15 04:59:42;;;;;;;8.15;5.38;;;6.30;2.40;;;;;;7368679;19;20090;-62
2022/03/15 05:02:12;;;;;;;9.02;5.93;;;6.30;2.50;;;;;;7365463;19;20010;-62
2022/03/15 05:04:42;;;;;;;8.38;5.75;;;6.30;2.40;;;;;;7364579;19;20011;-62
2022/03/15 05:07:15;;;;;;;8.68;5.70;;;6.30;2.40;;;;;;7364284;19;20081;-62
2022/03/15 05:12:27;;;;;;;11.55;5.88;;;6.30;3.10;;;;;;7366159;19;20014;-62
2022/03/15 05:14:57;;;;;;;8.98;5.93;;;6.30;3.50;;;;;;7362626;19;20011;-62
2022/03/15 05:17:27;;;;;;;9.75;5.53;;;6.30;3.50;;;;;;7363761;19;20006;-62
2022/03/15 05:19:57;;;;;;;12.93;6.47;;;6.20;3.70;;;;;;7364600;19;20018;-62
2022/03/15 05:22:30;;;;;;;11.32;6.53;;;6.30;4.10;;;;;;7367533;19;20486;-62
2022/03/15 05:24:59;;;;;;;9.20;5.97;;;6.30;3.30;;;;;;7384730;19;20129;-62
2022/03/15 05:27:29;;;;;;;9.75;6.15;;;6.20;3.90;;;;;;7363364;19;20014;-61
2022/03/15 05:29:59;;;;;;;9.57;5.82;;;6.20;4.20;;;;;;7364088;19;20480;-61
2022/03/15 05:32:29;;;;;;;10.27;6.30;;;6.10;4.40;;;;;;7367055;19;20010;-61
2022/03/15 05:34:59;;;;;;;11.20;6.43;;;6.10;4.50;;;;;;7362599;19;20119;-61
2022/03/15 05:37:32;;;;;;;18.83;7.47;;;6.10;4.50;;;;;;7363145;19;20358;-61
2022/03/15 05:40:02;;;;;;;13.18;7.20;;;6.10;4.50;;;;;;7370898;19;20006;-62
2022/03/15 05:42:31;;;;;;;12.25;6.10;;;6.20;4.20;;;;;;7388974;19;20077;-61
2022/03/15 05:45:01;;;;;;;12.60;6.80;;;6.20;3.80;;;;;;7362086;19;20085;-61
2022/03/15 05:47:31;;;;;;;13.85;6.40;;;6.20;3.70;;;;;;7363170;19;20010;-60
2022/03/15 05:50:01;;;;;;;14.20;6.57;;;6.20;3.90;;;;;;7361547;19;20015;-60
2022/03/15 05:52:34;;;;;;;10.52;6.30;;;6.20;4.10;;;;;;7365720;19;20090;-61
2022/03/15 05:55:04;;;;;;;11.27;6.15;;;6.20;3.80;;;;;;7362683;19;20006;-63
2022/03/15 05:57:34;;;;;;;10.15;5.57;;;6.20;3.80;;;;;;7382696;19;20118;-62
2022/03/15 06:00:04;;;;;;;12.60;6.53;;;6.30;3.50;;;;;;7362314;19;20014;-62
2022/03/15 06:02:33;;;;;;;13.10;6.78;;;6.30;3.30;;;;;;7366128;19;20010;-62
2022/03/15 06:05:04;;;;;;;12.25;6.50;;;6.30;3.40;;;;;;7362543;19;20002;-62
2022/03/15 06:07:36;;;;;;;14.32;7.00;;;6.40;3.50;;;;;;7362857;19;20066;-62
2022/03/15 06:10:10;;;;;;;13.63;6.47;;;6.30;4.00;;;;;;7361330;19;20018;-62
2022/03/15 06:12:40;;;;;;;13.52;6.22;;;6.40;4.00;;;;;;7387201;19;20093;-62
2022/03/15 06:15:11;;;;;;;12.88;6.13;;;6.40;3.80;;;;;;7360209;19;20014;-62
2022/03/15 06:17:50;;;;;;;10.82;6.47;;;6.40;3.60;;;;;;7360608;19;20682;-61
2022/03/15 06:20:21;;;;;;;14.48;6.60;;;6.50;3.80;;;;;;7361872;19;20021;-61
2022/03/15 06:22:54;;;;;;;13.80;6.60;;;6.50;3.80;;;;;;7364496;19;20020;-61
2022/03/15 06:25:25;;;;;;;13.55;6.88;;;6.50;4.00;;;;;;7359430;19;20478;-62
2022/03/15 06:27:55;;;;;;;11.68;7.47;;;6.50;3.70;;;;;;7386288;19;20082;-61
2022/03/15 06:30:25;;;;;;;12.30;6.65;;;6.50;4.10;;;;;;7359133;19;20507;-62
2022/03/15 06:32:55;;;;;;;16.20;7.90;;;6.60;3.70;;;;;;7361405;19;20622;-63
2022/03/15 06:35:26;;;;;;;13.70;7.50;;;6.70;4.10;;;;;;7359091;19;20018;-60
2022/03/15 06:37:59;;;;;;;12.27;7.13;;;6.80;3.90;;;;;;7362896;19;20018;-62
2022/03/15 06:40:32;;;;;;;18.83;7.00;;;6.80;2.70;;;;;;7360129;19;20014;-61
2022/03/15 06:43:02;;;;;;;15.13;6.72;;;6.90;2.80;;;;;;7368749;19;20011;-61
2022/03/15 06:45:32;;;;;;;15.40;6.55;;;6.90;2.60;;;;;;7378012;19;20043;-62
2022/03/15 06:48:02;;;;;;;16.73;6.60;;;7.00;2.20;;;;;;7361640;19;20017;-61
2022/03/15 06:50:32;;;;;;;14.68;7.07;;;7.00;2.20;;;;;;7359828;19;20401;-61
2022/03/15 06:53:04;;;;;;;13.00;6.97;;;7.00;1.70;;;;;;7362630;19;20723;-62
2022/03/15 06:55:34;;;;;;;12.60;6.35;;;7.10;1.70;;;;;;7356110;19;20070;-62
2022/03/15 06:58:04;;;;;;;18.10;7.07;;;7.20;1.20;;;;;;7362378;19;20010;-62
2022/03/15 07:00:34;;;;;;;20.25;7.65;;;7.20;1.00;;;;;;7381806;19;20417;-61
2022/03/15 07:03:04;;;;;;;14.50;6.60;;;7.30;1.00;;;;;;7362685;19;20060;-62
2022/03/15 07:05:35;;;;;;;12.18;6.43;;;7.30;1.00;;;;;;7358699;19;20010;-62
2022/03/15 07:08:07;;;;;;;13.30;6.30;;;7.30;1.00;;;;;;7362603;19;20010;-62
2022/03/15 07:10:37;;;;;;;12.00;6.85;;;7.40;1.00;;;;;;7359767;19;20070;-62
2022/03/15 07:13:07;;;;;;;11.00;5.82;;;7.40;1.00;;;;;;7362602;19;20081;-62
2022/03/15 07:15:37;;;;;;;15.13;6.57;;;7.30;1.00;;;;;;7378479;19;20011;-62
2022/03/15 07:18:07;;;;;;;13.43;6.47;;;7.40;1.00;;;;;;7361403;19;20031;-61
2022/03/15 07:20:37;;;;;;;14.52;6.70;;;7.50;1.00;;;;;;7359861;19;20127;-61
2022/03/15 07:23:09;;;;;;;19.90;7.03;;;7.40;1.00;;;;;;7362557;19;20156;-62
2022/03/15 07:25:39;;;;;;;14.68;7.00;;;7.50;1.00;;;;;;7355996;19;20443;-62
2022/03/15 07:28:09;;;;;;;18.35;7.45;;;7.40;1.00;;;;;;7361980;19;20096;-62
2022/03/15 07:30:39;;;;;;;14.52;6.90;;;7.30;1.00;;;;;;7379765;19;20010;-62
2022/03/15 07:33:10;;;;;;;14.70;6.40;;;7.30;1.00;;;;;;7358559;19;20024;-60
2022/03/15 07:35:40;;;;;;;15.57;7.95;;;7.30;1.00;;;;;;7352633;19;20017;-62
2022/03/15 07:38:17;;;;;;;15.18;6.82;;;7.40;1.00;;;;;;7358589;19;20006;-63
2022/03/15 07:40:48;;;;;;;19.45;7.05;;;7.40;1.00;;;;;;7354787;19;20078;-62
2022/03/15 07:43:19;;;;;;;17.30;7.32;;;7.50;1.00;;;;;;7357724;19;20078;-63
2022/03/15 07:45:48;;;;;;;10.25;6.65;;;7.40;1.00;;;;;;7374833;19;20467;-62
2022/03/15 07:48:19;;;;;;;17.77;7.00;;;7.30;1.00;;;;;;7360785;19;20010;-62
2022/03/15 07:50:49;;;;;;;13.15;6.88;;;7.20;1.00;;;;;;7357782;19;20467;-62
2022/03/15 07:53:21;;;;;;;13.82;6.70;;;7.20;1.00;;;;;;7368936;19;20024;-62
2022/03/15 07:55:51;;;;;;;17.17;7.35;;;7.20;1.00;;;;;;7362346;19;20006;-62
2022/03/15 07:58:21;;;;;;;11.55;6.78;;;7.30;1.00;;;;;;7368008;19;20026;-62
2022/03/15 08:00:54;;;;;;;10.55;5.82;;;7.30;1.00;;;;;;7387688;19;20037;-61
2022/03/15 08:03:24;;;;;;;14.18;6.63;;;7.40;1.00;;;;;;7368554;19;20015;-62
2022/03/15 08:05:54;;;;;;;13.98;6.57;;;7.50;1.00;;;;;;7364507;19;20490;-62
2022/03/15 08:08:27;;;;;;;12.75;6.45;;;7.60;1.00;;;;;;7369194;19;20016;-61
2022/03/15 08:10:57;;;;;;;13.43;6.57;;;7.80;1.00;;;;;;7365613;19;20017;-63
2022/03/15 08:13:26;;;;;;;16.38;6.57;;;7.90;1.00;;;;;;7368808;19;20116;-62
2022/03/15 08:15:56;;;;;;;12.30;6.75;;;7.90;1.00;;;;;;7385680;19;20502;-63
2022/03/15 08:18:26;;;;;;;12.05;5.88;;;8.10;1.00;;;;;;7369264;19;20013;-62
2022/03/15 08:20:59;;;;;;;13.27;6.78;;;8.30;1.00;;;;;;7365834;19;20425;-63
2022/03/15 08:23:32;;;;;;;13.23;6.28;;;8.10;1.00;;;;;;7368295;19;20021;-62
2022/03/15 08:26:01;;;;;;;11.75;6.15;;;8.30;1.00;;;;;;7363942;19;20530;-63
2022/03/15 08:28:32;;;;;;;14.85;6.32;;;8.30;1.00;;;;;;7368168;19;20094;-63
2022/03/15 08:31:02;;;;;;;8.68;5.25;;;8.50;1.00;;;;;;7368107;19;20002;-62
2022/03/15 08:33:32;;;;;;;8.27;6.07;;;8.50;1.00;;;;;;7390227;19;20632;-63
2022/03/15 08:36:02;;;;;;;11.82;6.57;;;8.70;1.00;;;;;;7363868;19;20010;-63
2022/03/15 08:38:35;;;;;;;13.13;6.22;;;8.60;1.00;;;;;;7365981;19;20636;-63
2022/03/15 08:41:06;;;;;;;22.50;6.13;;;8.70;1.00;;;;;;7365392;19;20006;-63
2022/03/15 08:43:36;;;;;;;15.50;6.25;;;8.80;1.00;;;;;;7367728;19;20333;-62
2022/03/15 08:46:06;;;;;;;11.50;6.50;;;8.80;1.00;;;;;;7361350;19;20010;-63
2022/03/15 08:48:36;;;;;;;11.00;6.50;;;9.00;1.00;;;;;;7388759;19;20392;-63
2022/03/15 08:51:08;;;;;;;12.57;6.43;;;9.20;1.00;;;;;;7361959;19;20383;-63
2022/03/15 08:53:40;;;;;;;15.50;6.45;;;9.40;1.00;;;;;;7366694;19;20780;-64
2022/03/15 08:56:10;;;;;;;19.77;9.65;;;9.10;1.00;;;;;;7363663;19;20054;-64
2022/03/15 08:58:40;;;;;;;17.75;9.13;;;9.30;1.00;;;;;;7366926;19;20078;-62
2022/03/15 09:01:12;;;;;;;14.23;7.38;;;9.50;1.00;;;;;;7365504;19;20020;-63
2022/03/15 09:04:02;;;;;;;14.18;5.90;;;9.20;1.00;;;;;;7366335;19;20010;-63
2022/03/15 09:06:33;;;;;;;13.88;6.13;;;9.10;1.00;;;;;;7384605;19;20039;-61
2022/03/15 09:09:06;;;;;;;13.27;5.85;;;9.30;1.00;;;;;;7365060;19;20015;-63
2022/03/15 09:11:36;;;;;;;14.45;6.88;;;9.40;1.00;;;;;;7364148;19;20014;-64
2022/03/15 09:14:06;;;;;;;18.85;5.95;;;9.30;1.00;;;;;;7366169;19;20021;-62
2022/03/15 09:16:36;;;;;;;14.00;6.32;;;9.40;1.00;;;;;;7362378;19;20019;-62
2022/03/15 09:19:06;;;;;;;15.65;6.80;;;9.40;1.00;;;;;;7366229;19;20018;-63
2022/03/15 09:21:36;;;;;;;16.10;6.72;;;9.60;1.00;;;;;;7385609;19;20110;-62
2022/03/15 09:24:09;;;;;;;9.13;6.28;;;9.70;1.00;;;;;;7364291;19;20467;-62
2022/03/15 09:26:41;;;;;;;19.83;6.53;;;9.80;1.00;;;;;;7362272;19;20045;-63
2022/03/15 09:29:12;;;;;;;16.25;6.72;;;10.00;1.00;;;;;;7364785;19;20118;-62
2022/03/15 09:31:42;;;;;;;15.98;7.10;;;10.00;1.00;;;;;;7362925;19;20082;-63
2022/03/15 09:34:12;;;;;;;12.77;6.75;;;10.10;1.00;;;;;;7365162;19;20078;-62
2022/03/15 09:36:42;;;;;;;11.68;5.75;;;10.10;1.00;;;;;;7383915;19;20470;-63
2022/03/15 09:39:15;;;;;;;15.30;5.93;;;10.20;1.00;;;;;;7365646;19;20066;-63
2022/03/15 09:41:46;;;;;;;16.08;6.22;;;10.20;1.00;;;;;;7363094;19;20081;-63
2022/03/15 09:44:20;;;;;;;10.63;5.70;;;10.30;1.00;;;;;;7364093;19;20023;-62
2022/03/15 09:46:52;;;;;;;23.25;7.72;;;10.30;1.00;;;;;;7361920;19;20010;-63
2022/03/15 09:49:28;;;;;;;16.88;6.35;;;10.40;1.00;;;;;;7365207;19;20035;-62
2022/03/15 09:52:04;;;;;;;19.25;5.82;;;10.40;1.00;;;;;;7373784;19;20479;-64
2022/03/15 09:54:38;;;;;;;16.70;6.20;;;10.50;1.00;;;;;;7385586;19;20031;-62
2022/03/15 09:57:09;;;;;;;13.98;6.07;;;10.60;1.00;;;;;;7361776;19;20021;-62
2022/03/15 09:59:39;;;;;;;21.38;5.80;;;10.60;1.00;;;;;;7364063;19;20078;-62
2022/03/15 10:02:10;;;;;;;12.23;5.85;;;10.60;1.00;;;;;;7362987;19;20020;-62
2022/03/15 10:04:40;;;;;;;9.02;5.78;;;10.50;1.00;;;;;;7365157;19;20010;-62
2022/03/15 10:07:12;;;;;;;11.02;5.85;;;10.40;1.00;;;;;;7364027;19;20032;-61
2022/03/15 10:09:45;;;;;;;11.18;4.63;;;10.30;1.00;;;;;;7382727;19;20041;-62
2022/03/15 10:12:15;;;;;;;14.95;5.00;;;10.30;1.00;;;;;;7360310;19;20014;-63
2022/03/15 10:14:48;;;;;;;9.18;4.55;;;10.20;1.00;;;;;;7358628;19;20133;-63
2022/03/15 10:17:18;;;;;;;12.55;4.72;;;10.10;1.00;;;;;;7361507;19;20420;-62
2022/03/15 10:19:56;;;;;;;6.78;4.28;;;10.30;1.00;;;;;;7364815;19;20378;-62
2022/03/15 10:22:27;;;;;;;8.07;4.18;;;10.30;1.00;;;;;;7362332;19;20586;-63
2022/03/15 10:25:01;;;;;;;7.95;4.05;;;10.30;1.00;;;;;;7382860;19;20018;-62
2022/03/15 10:27:37;;;;;;;9.50;4.00;;;10.30;1.00;;;;;;7362760;19;20006;-63
2022/03/15 10:30:08;;;;;;;9.98;3.75;;;10.20;1.00;;;;;;7362797;19;20074;-63
2022/03/15 10:32:38;;;;;;;6.18;3.60;;;10.10;1.00;;;;;;7361186;19;20007;-62
2022/03/15 10:35:09;;;;;;;7.43;3.30;;;10.30;1.00;;;;;;7361521;19;20344;-62
2022/03/15 10:37:43;;;;;;;12.52;4.50;;;10.00;1.00;;;;;;7360959;19;20021;-62
2022/03/15 10:40:16;;;;;;;8.48;3.90;;;10.10;1.00;;;;;;7363456;19;20047;-62
2022/03/15 10:42:48;;;;;;;8.35;3.85;;;10.10;1.00;;;;;;7384731;19;20768;-63
2022/03/15 10:45:23;;;;;;;8.23;4.13;;;10.30;1.00;;;;;;7358948;19;20074;-62
2022/03/15 10:47:54;;;;;;;6.90;3.58;;;10.30;1.00;;;;;;7362806;19;20006;-64
2022/03/15 10:50:29;;;;;;;8.98;4.25;;;10.10;1.00;;;;;;7362575;19;20621;-63
2022/03/15 10:53:00;;;;;;;11.70;3.80;;;10.00;1.00;;;;;;7362379;19;20021;-62
2022/03/15 10:55:33;;;;;;;10.85;4.10;;;9.90;1.00;;;;;;7355696;19;20418;-62
2022/03/15 10:58:05;;;;;;;12.80;5.90;;;10.10;1.00;;;;;;7362944;19;20018;-63
2022/03/15 11:00:44;;;;;;;9.00;5.70;;;10.10;1.00;;;;;;7383675;19;20010;-62
2022/03/15 11:03:20;;;;;;;17.52;6.43;;;9.90;1.00;;;;;;7363829;19;20007;-62
2022/03/15 11:05:50;;;;;;;12.25;6.60;;;9.90;1.00;;;;;;7358172;19;20028;-62
2022/03/15 11:08:22;;;;;;;12.63;7.28;;;9.70;1.00;;;;;;7359500;19;20011;-63
2022/03/15 11:11:05;;;;;;;11.65;6.82;;;9.70;1.00;;;;;;7361205;19;20557;-63
2022/03/15 11:13:36;;;;;;;13.05;8.10;;;9.60;2.80;;;;;;7361286;19;20017;-62
2022/03/15 11:16:07;;;;;;;15.00;7.57;;;9.70;4.50;;;;;;7357548;19;20015;-63
2022/03/15 11:18:40;;;;;;;11.70;6.75;;;9.50;3.90;;;;;;7381443;19;20022;-62
2022/03/15 11:21:10;;;;;;;16.25;7.35;;;9.60;4.60;;;;;;7360746;19;20010;-63
2022/03/15 11:23:44;;;;;;;14.73;7.72;;;9.40;4.40;;;;;;7363176;19;20028;-63
2022/03/15 11:26:19;;;;;;;16.27;7.82;;;9.60;5.70;;;;;;7357674;19;20027;-62
2022/03/15 11:28:50;;;;;;;13.75;7.53;;;9.70;8.00;;;;;;7361967;19;20007;-60
2022/03/15 11:31:20;;;;;;;12.07;7.30;;;9.80;7.30;;;;;;7360596;19;20011;-62
2022/03/15 11:33:51;;;;;;;9.23;6.32;;;9.80;6.90;;;;;;7383031;19;20014;-62
2022/03/15 11:36:21;;;;;;;11.07;6.40;;;9.70;6.50;;;;;;7357020;19;20569;-61
2022/03/15 11:38:53;;;;;;;10.40;6.43;;;9.70;6.10;;;;;;7361370;19;20014;-62
2022/03/15 11:41:28;;;;;;;12.50;6.55;;;9.70;8.30;;;;;;7359319;19;20035;-61
2022/03/15 11:44:03;;;;;;;;;;;9.70;9.80;;;;;;7362352;19;20018;-62
2022/03/15 11:46:37;;;;;;;9.55;6.95;;;9.70;7.70;;;;;;7358679;19;20339;-61
2022/03/15 11:49:23;;;;;;;13.73;6.50;;;9.60;6.90;;;;;;7361897;19;20014;-62
2022/03/15 11:52:04;;;;;;;15.15;6.65;;;9.50;8.20;;;;;;7380855;19;20025;-62
2022/03/15 11:54:46;;;;;;;11.20;6.10;;;9.60;8.70;;;;;;7359602;19;20014;-62
2022/03/15 11:57:40;;;;;;;12.73;6.85;;;9.60;8.30;;;;;;7359193;19;20872;-62
2022/03/15 12:00:11;;;;;;;12.55;7.18;;;9.50;8.20;;;;;;7360983;19;20011;-62
2022/03/15 12:02:42;;;;;;;12.13;6.97;;;9.50;9.70;;;;;;7358976;19;20028;-62
2022/03/15 12:05:18;;;;;;;18.77;7.57;;;9.50;8.80;;;;;;7358445;19;20011;-63
2022/03/15 12:08:11;;;;;;;15.15;8.20;;;9.60;9.40;;;;;;7359901;19;20010;-62
2022/03/15 12:10:46;;;;;;;11.63;7.57;;;9.70;10.10;;;;;;7358269;19;20394;-62
2022/03/15 12:13:47;;;;;;;12.93;7.20;;;9.70;8.80;;;;;;7359600;19;20018;-62
2022/03/15 12:16:21;;;;;;;12.00;7.45;;;9.80;8.80;;;;;;7356847;19;20021;-62
2022/03/15 12:19:05;;;;;;;13.52;6.60;;;9.80;9.60;;;;;;7382393;19;20010;-62
2022/03/15 12:21:46;;;;;;;18.08;7.50;;;9.70;10.30;;;;;;7355432;19;20015;-62
2022/03/15 12:24:20;;;;;;;13.73;7.47;;;9.90;11.20;;;;;;7359561;19;20466;-63
2022/03/15 12:27:01;;;;;;;9.05;6.88;;;9.90;11.30;;;;;;7356895;19;20017;-61
2022/03/15 12:29:36;;;;;;;10.73;6.60;;;9.80;11.80;;;;;;7360503;19;20010;-61
2022/03/15 12:32:14;;;;;;;11.05;6.55;;;9.70;12.90;;;;;;7355916;19;20025;-62
2022/03/15 12:34:45;;;;;;;14.77;7.50;;;9.80;13.30;;;;;;7357968;19;20014;-62
2022/03/15 12:37:16;;;;;;;13.25;7.10;;;9.80;12.30;;;;;;7359417;19;20161;-62
2022/03/15 12:39:57;;;;;;;12.77;7.63;;;9.80;13.80;;;;;;7388481;19;20014;-61
2022/03/15 12:42:27;;;;;;;14.65;7.05;;;9.70;14.90;;;;;;7365525;19;20017;-62
2022/03/15 12:45:04;;;;;;;11.23;7.57;;;9.70;15.50;;;;;;7362768;19;20017;-62
2022/03/15 12:47:36;;;;;;;12.70;7.68;;;9.60;15.50;;;;;;7366488;19;20011;-62
2022/03/15 12:50:12;;;;;;;14.90;8.27;;;9.60;16.00;;;;;;7366560;19;20466;-63
2022/03/15 12:52:51;;;;;;;13.23;7.25;;;9.80;17.20;;;;;;7365205;19;20021;-62
2022/03/15 12:55:23;;;;;;;13.05;7.03;;;9.90;17.00;;;;;;7361788;19;20019;-61
2022/03/15 12:57:57;;;;;;;13.90;6.38;;;10.00;15.60;;;;;;7390001;19;20086;-62
2022/03/15 13:00:32;;;;;;;7.72;5.97;;;10.10;15.40;;;;;;7367132;19;20006;-63
2022/03/15 13:03:03;;;;;;;14.00;6.63;;;10.20;12.90;;;;;;7368057;19;20014;-63
2022/03/15 13:05:34;;;;;;;13.13;7.13;;;10.20;13.80;;;;;;7360817;19;20087;-61
2022/03/15 13:08:06;;;;;;;10.05;6.65;;;10.20;12.10;;;;;;7365506;19;20083;-63
2022/03/15 13:10:39;;;;;;;10.48;6.97;;;10.10;13.80;;;;;;7365450;19;20018;-62
2022/03/15 13:13:10;;;;;;;16.17;7.18;;;10.10;14.30;;;;;;7365643;19;20471;-62
2022/03/15 13:15:48;;;;;;;14.05;6.88;;;10.10;14.50;;;;;;7381531;19;20113;-62
2022/03/15 13:18:20;;;;;;;12.98;6.80;;;10.10;13.80;;;;;;7367764;19;20014;-62
2022/03/15 13:20:51;;;;;;;12.15;7.40;;;10.20;14.20;;;;;;7362074;19;20010;-62
2022/03/15 13:23:21;;;;;;;13.27;6.68;;;10.10;13.10;;;;;;7366920;19;20010;-62
2022/03/15 13:25:53;;;;;;;10.52;6.32;;;10.20;13.80;;;;;;7360846;19;20466;-63